Lansdowne House Airport
CYLH : now visible

Airfield :











YOU CAN JOIN US ON...

 
LOGIN :

Register | Disclaimer

   EN    FR    IT 

 









Legend :    VFR   Marginal VFR   IFR   Intensive IFR   Very Intensive IFR
Visi :
Ceiling :
>= 8 km
>= 3000ft
5 to 8 km
1000 to 3000 ft
1500m to 5 km
500 to 1000 ft
800 to 1500m
200 to 500 ft
< 800m
< 200 ft
Symbols :   Thunderstorms  Fog  Heavy snow  Heavy precipitations  Wind > 20 kt






- Airport Elevation : 834 ft
- IATA code : YLH


CYLH - Lansdowne House

CURRENT METAR :
  • 040700Z AUTO 25006KT 5SM -SN SCT066 OVC087 M20/M22 A2983 RMK SLP133

EXPIRED METARs :
  • 040659Z AUTO 25006KT 5SM -SN BKN066 BKN080 OVC094 M20/M22 A2983 RMK SLP133
  • 040628Z AUTO 25006KT 6SM -SN SCT066 BKN080 OVC100 M20/M22 A2984 RMK SLP137
  • 040600Z AUTO 26005KT 3SM -SN SCT048 SCT071 BKN082 OVC100 M20/M22 A2984 RMK SLP138
  • 040542Z AUTO 25007KT 5SM -SN SCT050 SCT071 OVC090 M20/M22 A2985 RMK SLP141
  • 040507Z AUTO 26007KT 9SM -SN SCT050 BKN066 BKN077 OVC120 M20/M22 A2986 RMK SLP143

TAF N/A
CZWG FIR / North America



MET'MAP, your aeronautical weather chart ! - Copyright ORBIFLY December 2007 - Disclaimer

ORBIFLY MET'MAP TEAM :

Programming & Development : Alexandra Zaïnal
Original concept : Baudouin d'Aumeries
Technical & hardware support : Manuel Goepfert
Assistance : Marc-Olivier Méhu




SOURCES & CREDITS :

   NOAA       Earth
Advisory